createdAt,value
2017-12-27T00:00:36.843Z,93959.06
2017-12-27T00:03:10.010Z,93956.08
2017-12-27T00:05:43.272Z,93948.47
2017-12-27T00:08:16.359Z,93940.87
2017-12-27T00:10:49.591Z,93936.39
2017-12-27T00:13:22.657Z,93932.20
2017-12-27T00:15:55.828Z,93920.20
2017-12-27T00:18:28.836Z,93911.33
2017-12-27T00:24:12.004Z,93898.73
2017-12-27T00:26:45.305Z,93896.72
2017-12-27T00:29:18.540Z,93889.46
2017-12-27T00:31:45.476Z,93874.28
2017-12-27T00:34:12.948Z,93868.84
2017-12-27T00:36:40.426Z,93866.13
2017-12-27T00:39:07.932Z,93864.64
2017-12-27T00:41:35.396Z,93859.52
2017-12-27T00:44:02.880Z,93845.56
2017-12-27T00:46:30.358Z,93838.82
2017-12-27T00:48:57.866Z,93834.48
2017-12-27T00:51:25.332Z,93836.51
2017-12-27T00:53:52.928Z,93829.70
2017-12-27T00:56:20.501Z,93824.95
2017-12-27T00:58:48.069Z,93826.51
2017-12-27T01:01:15.571Z,93814.11
2017-12-27T01:03:43.056Z,93819.11
2017-12-27T01:06:10.520Z,93813.78
2017-12-27T01:08:38.067Z,93803.67
2017-12-27T01:11:05.588Z,93796.17
2017-12-27T01:13:33.052Z,93791.34
2017-12-27T01:16:00.526Z,93779.86
2017-12-27T01:18:28.146Z,93783.70
2017-12-27T01:20:55.616Z,93778.87
2017-12-27T01:23:23.084Z,93781.91
2017-12-27T01:25:50.620Z,93767.73
2017-12-27T01:28:18.108Z,93769.67
2017-12-27T01:30:45.595Z,93758.22
2017-12-27T01:33:13.096Z,93753.75
2017-12-27T01:35:40.575Z,93750.14
2017-12-27T01:38:08.096Z,93752.78
2017-12-27T01:40:35.576Z,93750.80
2017-12-27T01:43:03.041Z,93741.27
2017-12-27T01:45:30.504Z,93729.75
2017-12-27T01:47:58.043Z,93720.23
2017-12-27T01:50:25.517Z,93709.75
2017-12-27T01:52:53.008Z,93711.30
2017-12-27T01:55:20.491Z,93700.56
2017-12-27T01:57:47.992Z,93702.00
2017-12-27T02:00:15.471Z,93698.05
2017-12-27T02:02:42.976Z,93690.37
2017-12-27T02:05:10.450Z,93680.02
2017-12-27T02:07:37.920Z,93678.59
2017-12-27T02:10:05.414Z,93671.36
2017-12-27T02:12:32.888Z,93669.59
2017-12-27T02:15:00.372Z,93654.84
2017-12-27T02:17:27.884Z,93652.80
2017-12-27T02:19:55.397Z,93644.53
2017-12-27T02:22:22.884Z,93638.13
2017-12-27T02:24:50.356Z,93626.16
2017-12-27T02:27:17.842Z,93625.85
2017-12-27T02:29:45.315Z,93619.30
2017-12-27T02:32:12.796Z,93609.55
2017-12-27T02:34:40.264Z,93605.23
2017-12-27T02:37:07.802Z,93588.47
2017-12-27T02:42:48.400Z,93582.63
2017-12-27T02:45:15.869Z,93571.00
2017-12-27T02:47:43.336Z,93556.11
2017-12-27T02:50:10.817Z,93555.77
2017-12-27T02:52:38.281Z,93547.31
2017-12-27T02:55:05.848Z,93549.31
2017-12-27T02:57:33.374Z,93544.81
2017-12-27T03:00:00.860Z,93542.08
2017-12-27T03:02:28.326Z,93539.16
2017-12-27T03:04:55.795Z,93541.00
2017-12-27T03:07:23.281Z,93532.95
2017-12-27T03:09:50.756Z,93519.66
2017-12-27T03:12:18.260Z,93518.34
2017-12-27T03:14:45.728Z,93514.64
2017-12-27T03:17:13.193Z,93506.95
2017-12-27T03:19:40.684Z,93498.63
2017-12-27T03:22:08.148Z,93491.42
2017-12-27T03:24:35.632Z,93489.05
2017-12-27T03:27:03.108Z,93486.46
2017-12-27T03:29:30.612Z,93482.13
2017-12-27T03:31:58.084Z,93466.63
2017-12-27T03:34:25.562Z,93468.21
2017-12-27T03:36:53.044Z,93455.84
2017-12-27T03:39:20.507Z,93443.84
2017-12-27T03:41:47.988Z,93441.14
2017-12-27T03:44:15.506Z,93427.56
2017-12-27T03:46:42.991Z,93429.53
2017-12-27T03:49:10.464Z,93426.27
2017-12-27T03:51:38.017Z,93415.21
2017-12-27T03:54:05.496Z,93414.84
2017-12-27T03:56:32.963Z,93406.06
2017-12-27T03:59:00.448Z,93388.91
2017-12-27T04:01:27.925Z,93387.11
2017-12-27T04:03:55.392Z,93392.09
2017-12-27T04:06:22.880Z,93381.82
2017-12-27T04:08:50.356Z,93370.98
2017-12-27T04:11:17.815Z,93367.27
2017-12-27T04:13:45.316Z,93355.33
2017-12-27T04:16:12.784Z,93345.55
2017-12-27T04:18:40.251Z,93344.56
2017-12-27T04:21:07.756Z,93337.37
2017-12-27T04:23:35.257Z,93332.05
2017-12-27T04:26:02.736Z,93320.37
2017-12-27T04:28:30.223Z,93317.67
2017-12-27T04:30:57.689Z,93307.30
2017-12-27T04:33:25.151Z,93300.33
2017-12-27T04:35:52.635Z,93296.66
2017-12-27T04:38:20.108Z,93297.04
2017-12-27T04:40:47.575Z,93289.47
2017-12-27T04:43:15.066Z,93286.42
2017-12-27T04:45:42.686Z,93282.68
2017-12-27T04:48:10.156Z,93271.11
2017-12-27T04:50:37.700Z,93262.34
2017-12-27T04:53:05.171Z,93257.38
2017-12-27T04:55:32.635Z,93250.59
2017-12-27T04:58:00.131Z,93250.72
2017-12-27T05:00:27.605Z,93244.02
2017-12-27T05:02:55.071Z,93243.67
2017-12-27T05:05:22.551Z,93233.30
2017-12-27T05:07:50.030Z,93216.26
2017-12-27T05:10:17.509Z,93208.70
2017-12-27T05:12:44.996Z,93208.20
2017-12-27T05:15:12.468Z,93201.11
2017-12-27T05:17:39.937Z,93189.70
2017-12-27T05:20:07.420Z,93192.17
2017-12-27T05:22:34.884Z,93180.28
2017-12-27T05:25:02.352Z,93188.56
2017-12-27T05:27:29.839Z,93183.20
2017-12-27T05:29:57.308Z,93169.12
2017-12-27T05:32:24.797Z,93163.21
2017-12-27T05:34:52.277Z,93166.27
2017-12-27T05:37:19.739Z,93151.13
2017-12-27T05:39:47.241Z,93152.42
2017-12-27T05:42:14.745Z,93143.28
2017-12-27T05:44:42.212Z,93138.08
2017-12-27T05:47:09.696Z,93136.45
2017-12-27T05:49:37.172Z,93135.66
2017-12-27T05:52:04.654Z,93132.72
2017-12-27T05:54:32.135Z,93125.03
2017-12-27T05:56:59.659Z,93122.07
2017-12-27T05:59:27.143Z,93114.42
2017-12-27T06:01:54.617Z,93102.50
2017-12-27T06:04:22.107Z,93101.09
2017-12-27T06:06:49.572Z,93083.59
2017-12-27T06:09:17.046Z,93089.47
2017-12-27T06:11:44.527Z,93093.45
2017-12-27T06:14:12.017Z,93077.08
2017-12-27T06:16:39.540Z,93076.78
2017-12-27T06:19:07.012Z,93061.35
2017-12-27T06:21:34.496Z,93065.13
2017-12-27T06:24:01.986Z,93059.17
2017-12-27T06:26:29.555Z,93063.98
2017-12-27T06:28:57.097Z,93053.16
2017-12-27T06:31:24.574Z,93051.48
2017-12-27T06:33:52.056Z,93052.58
2017-12-27T06:36:19.540Z,93043.11
2017-12-27T06:38:47.040Z,93039.33
2017-12-27T06:41:14.528Z,93040.97
2017-12-27T06:43:42.003Z,93038.93
2017-12-27T06:46:09.487Z,93032.89
2017-12-27T06:48:36.953Z,93028.55
2017-12-27T06:51:04.424Z,93026.76
2017-12-27T06:53:31.907Z,93027.16
2017-12-27T06:55:59.382Z,93021.46
2017-12-27T06:58:26.852Z,93018.48
2017-12-27T07:00:54.344Z,93016.18
2017-12-27T07:03:21.818Z,93010.91
2017-12-27T07:05:49.288Z,93001.28
2017-12-27T07:08:16.780Z,93002.50
2017-12-27T07:10:44.248Z,93000.50
2017-12-27T07:13:11.740Z,92990.55
2017-12-27T07:15:39.208Z,92987.41
2017-12-27T07:18:06.672Z,92988.13
2017-12-27T07:20:34.337Z,92980.14
2017-12-27T07:23:01.811Z,92984.02
2017-12-27T07:25:29.317Z,92984.79
2017-12-27T07:27:56.800Z,92981.83
2017-12-27T07:30:24.268Z,92979.08
2017-12-27T07:32:51.756Z,92983.41
2017-12-27T07:35:19.231Z,92980.98
2017-12-27T07:37:46.704Z,92978.24
2017-12-27T07:40:14.193Z,92975.56
2017-12-27T07:42:41.676Z,92975.64
2017-12-27T07:45:09.144Z,92974.16
2017-12-27T07:47:36.632Z,92976.52
2017-12-27T07:50:04.104Z,92977.80
2017-12-27T07:52:31.585Z,92965.01
2017-12-27T07:54:59.068Z,92979.14
2017-12-27T07:57:26.550Z,92980.78
2017-12-27T07:59:54.036Z,92980.44
2017-12-27T08:02:21.684Z,92974.31
2017-12-27T08:04:49.556Z,92973.31
2017-12-27T08:07:17.060Z,92969.38
2017-12-27T08:09:44.532Z,92971.00
2017-12-27T08:12:11.996Z,92967.56
2017-12-27T08:14:39.621Z,92964.38
2017-12-27T08:17:07.105Z,92975.64
2017-12-27T08:19:34.572Z,92974.19
2017-12-27T08:22:02.060Z,92976.11
2017-12-27T08:24:29.548Z,92968.30
2017-12-27T08:26:57.016Z,92971.08
2017-12-27T08:29:24.666Z,92964.63
2017-12-27T08:31:52.152Z,92961.30
2017-12-27T08:34:19.696Z,92953.98
2017-12-27T08:36:47.189Z,92947.28
2017-12-27T08:39:14.656Z,92944.80
2017-12-27T08:41:42.124Z,92953.56
2017-12-27T08:44:09.616Z,92945.16
2017-12-27T08:46:37.088Z,92941.62
2017-12-27T08:49:04.556Z,92940.16
2017-12-27T08:51:32.402Z,92935.05
2017-12-27T08:53:59.872Z,92930.52
2017-12-27T08:56:27.364Z,92935.66
2017-12-27T08:58:54.856Z,92922.81
2017-12-27T09:01:22.325Z,92914.17
2017-12-27T09:03:49.829Z,92910.98
2017-12-27T09:06:17.337Z,92909.95
2017-12-27T09:08:44.797Z,92910.67
2017-12-27T09:11:12.285Z,92910.02
2017-12-27T09:13:39.801Z,92910.78
2017-12-27T09:16:07.280Z,92914.87
2017-12-27T09:18:34.763Z,92912.08
2017-12-27T09:21:02.228Z,92902.05
2017-12-27T09:23:29.712Z,92907.41
2017-12-27T09:25:57.184Z,92904.17
2017-12-27T09:28:24.648Z,92911.05
2017-12-27T09:30:52.132Z,92905.53
2017-12-27T09:33:19.636Z,92905.72
2017-12-27T09:35:47.148Z,92911.76
2017-12-27T09:38:14.620Z,92901.42
2017-12-27T09:40:42.109Z,92901.14
2017-12-27T09:43:09.571Z,92908.66
2017-12-27T09:45:37.074Z,92905.97
2017-12-27T09:48:04.605Z,92900.16
2017-12-27T09:50:32.067Z,92907.56
2017-12-27T09:52:59.551Z,92903.18
2017-12-27T09:55:27.239Z,92897.05
2017-12-27T09:57:54.788Z,92895.72
2017-12-27T10:00:22.263Z,92892.97
2017-12-27T10:02:49.733Z,92889.17
2017-12-27T10:05:17.345Z,92883.66
2017-12-27T10:07:44.885Z,92894.48
2017-12-27T10:10:12.381Z,92889.09
2017-12-27T10:12:39.917Z,92894.61
2017-12-27T10:15:07.396Z,92880.20
2017-12-27T10:17:34.939Z,92885.13
2017-12-27T10:20:02.649Z,92879.09
2017-12-27T10:22:30.131Z,92891.84
2017-12-27T10:24:57.592Z,92895.50
2017-12-27T10:27:25.056Z,92892.16
2017-12-27T10:29:52.541Z,92883.16
2017-12-27T10:32:20.897Z,92875.41
2017-12-27T10:34:51.017Z,92862.88
2017-12-27T10:37:19.555Z,92855.86
2017-12-27T10:39:47.071Z,92858.76
2017-12-27T10:42:14.800Z,92856.66
2017-12-27T10:44:42.301Z,92848.02
2017-12-27T10:47:09.764Z,92843.45
2017-12-27T10:49:39.847Z,92834.12
2017-12-27T10:52:10.580Z,92826.50
2017-12-27T10:54:38.201Z,92834.45
2017-12-27T10:57:10.052Z,92840.19
2017-12-27T10:59:38.529Z,92812.73
2017-12-27T11:02:05.996Z,92821.72
2017-12-27T11:04:34.645Z,92826.66
2017-12-27T11:07:02.160Z,92810.27
2017-12-27T11:09:29.632Z,92806.73
2017-12-27T11:11:57.107Z,92797.53
2017-12-27T11:14:24.571Z,92812.41
2017-12-27T11:16:52.181Z,92804.95
2017-12-27T11:19:19.668Z,92803.08
2017-12-27T11:21:47.149Z,92796.59
2017-12-27T11:24:14.652Z,92802.52
2017-12-27T11:26:42.120Z,92804.32
2017-12-27T11:29:09.605Z,92795.20
2017-12-27T11:31:37.068Z,92797.08
2017-12-27T11:34:04.540Z,92787.77
2017-12-27T11:36:32.032Z,92779.98
2017-12-27T11:38:59.516Z,92775.11
2017-12-27T11:41:26.976Z,92769.50
2017-12-27T11:43:54.457Z,92752.11
2017-12-27T11:46:21.924Z,92750.44
2017-12-27T11:48:49.389Z,92756.34
2017-12-27T11:51:16.884Z,92759.83
2017-12-27T11:53:44.352Z,92755.92
2017-12-27T11:56:11.812Z,92760.28
2017-12-27T11:58:39.288Z,92759.05
2017-12-27T12:01:06.752Z,92745.70
2017-12-27T12:03:34.220Z,92739.70
2017-12-27T12:06:01.710Z,92728.42
2017-12-27T12:08:29.173Z,92720.95
2017-12-27T12:10:56.711Z,92725.89
2017-12-27T12:13:24.193Z,92723.14
2017-12-27T12:15:51.683Z,92726.69
2017-12-27T12:18:19.144Z,92733.97
2017-12-27T12:20:46.636Z,92742.18
2017-12-27T12:23:14.100Z,92739.54
2017-12-27T12:25:41.570Z,92741.33
2017-12-27T12:28:09.116Z,92733.42
2017-12-27T12:30:36.589Z,92726.08
2017-12-27T12:33:04.096Z,92726.39
2017-12-27T12:35:31.589Z,92719.50
2017-12-27T12:37:59.051Z,92719.59
2017-12-27T12:40:26.514Z,92709.30
2017-12-27T12:42:53.993Z,92714.48
2017-12-27T12:45:21.460Z,92706.20
2017-12-27T12:47:48.956Z,92691.23
2017-12-27T12:50:16.434Z,92673.75
2017-12-27T12:52:43.912Z,92670.72
2017-12-27T12:55:11.372Z,92658.10
2017-12-27T12:57:38.832Z,92651.75
2017-12-27T13:00:06.314Z,92655.64
2017-12-27T13:02:33.775Z,92645.22
2017-12-27T13:05:01.252Z,92639.55
2017-12-27T13:07:28.727Z,92642.80
2017-12-27T13:09:56.212Z,92644.46
2017-12-27T13:12:23.929Z,92638.16
2017-12-27T13:14:51.392Z,92633.19
2017-12-27T13:17:18.888Z,92620.08
2017-12-27T13:19:46.344Z,92620.73
2017-12-27T13:22:13.808Z,92614.89
2017-12-27T13:24:41.328Z,92618.31
2017-12-27T13:27:08.794Z,92611.83
2017-12-27T13:29:36.262Z,92606.70
2017-12-27T13:32:03.750Z,92592.91
2017-12-27T13:34:31.220Z,92601.14
2017-12-27T13:36:58.691Z,92600.28
2017-12-27T13:39:26.175Z,92608.19
2017-12-27T13:41:53.640Z,92601.69
2017-12-27T13:44:21.115Z,92600.59
2017-12-27T13:46:48.600Z,92599.28
2017-12-27T13:49:16.217Z,92600.67
2017-12-27T13:51:43.685Z,92605.07
2017-12-27T13:54:11.245Z,92593.08
2017-12-27T13:56:38.712Z,92586.52
2017-12-27T13:59:06.194Z,92598.20
2017-12-27T14:01:33.684Z,92602.26
2017-12-27T14:04:01.155Z,92598.94
2017-12-27T14:06:28.620Z,92592.49
2017-12-27T14:08:56.104Z,92589.95
2017-12-27T14:11:23.573Z,92592.81
2017-12-27T14:13:51.260Z,92595.06
2017-12-27T14:16:18.752Z,92603.42
2017-12-27T14:18:46.228Z,92600.39
2017-12-27T14:21:14.262Z,92585.75
2017-12-27T14:23:41.744Z,92597.34
2017-12-27T14:26:09.212Z,92605.61
2017-12-27T14:28:36.681Z,92604.41
2017-12-27T14:31:04.196Z,92597.16
2017-12-27T14:33:31.664Z,92596.99
2017-12-27T14:35:59.151Z,92586.88
2017-12-27T14:38:26.628Z,92593.56
2017-12-27T14:40:54.103Z,92598.58
2017-12-27T14:43:21.568Z,92599.44
2017-12-27T14:45:49.048Z,92599.16
2017-12-27T14:48:16.518Z,92603.97
2017-12-27T14:50:43.987Z,92601.09
2017-12-27T14:53:11.465Z,92601.16
2017-12-27T14:55:38.952Z,92606.73
2017-12-27T14:58:06.420Z,92612.14
2017-12-27T15:00:33.904Z,92613.92
2017-12-27T15:03:01.572Z,92610.97
2017-12-27T15:05:29.036Z,92610.41
2017-12-27T15:07:56.547Z,92615.27
2017-12-27T15:10:24.022Z,92617.92
2017-12-27T15:12:51.510Z,92616.75
2017-12-27T15:15:19.004Z,92618.28
2017-12-27T15:17:46.477Z,92616.06
2017-12-27T15:20:13.959Z,92611.80
2017-12-27T15:22:41.428Z,92623.63
2017-12-27T15:25:08.904Z,92623.63
2017-12-27T15:27:36.384Z,92626.88
2017-12-27T15:30:03.849Z,92633.77
2017-12-27T15:32:32.212Z,92636.34
2017-12-27T15:34:59.683Z,92640.84
2017-12-27T15:37:27.152Z,92642.78
2017-12-27T15:39:54.638Z,92637.52
2017-12-27T15:42:22.105Z,92641.05
2017-12-27T15:44:49.588Z,92637.74
2017-12-27T15:47:17.064Z,92645.23
2017-12-27T15:49:44.560Z,92644.58
2017-12-27T15:52:12.038Z,92646.08
2017-12-27T15:54:39.506Z,92658.30
2017-12-27T15:57:06.985Z,92664.48
2017-12-27T15:59:34.464Z,92666.39
2017-12-27T16:02:01.933Z,92663.89
2017-12-27T16:04:29.420Z,92654.05
2017-12-27T16:06:56.904Z,92679.13
2017-12-27T16:09:24.392Z,92668.19
2017-12-27T16:11:51.851Z,92672.66
2017-12-27T16:14:19.316Z,92669.67
2017-12-27T16:16:46.804Z,92668.58
2017-12-27T16:19:14.280Z,92670.97
2017-12-27T16:21:41.809Z,92678.02
2017-12-27T16:24:09.277Z,92671.95
2017-12-27T16:26:36.744Z,92679.73
2017-12-27T16:29:04.229Z,92680.05
2017-12-27T16:31:31.693Z,92681.11
2017-12-27T16:33:59.155Z,92678.53
2017-12-27T16:36:26.639Z,92673.59
2017-12-27T16:38:54.100Z,92666.02
2017-12-27T16:41:21.565Z,92661.35
2017-12-27T16:43:49.658Z,92664.72
2017-12-27T16:46:17.134Z,92656.27
2017-12-27T16:48:44.813Z,92653.11
2017-12-27T16:51:12.302Z,92653.11
2017-12-27T16:53:39.776Z,92657.25
2017-12-27T16:56:07.271Z,92655.60
2017-12-27T16:58:34.755Z,92655.28
2017-12-27T17:01:02.289Z,92648.48
2017-12-27T17:03:29.760Z,92658.05
2017-12-27T17:05:57.259Z,92655.34
2017-12-27T17:08:24.761Z,92660.40
2017-12-27T17:10:52.228Z,92662.20
2017-12-27T17:13:19.728Z,92665.67
2017-12-27T17:15:47.192Z,92667.19
2017-12-27T17:18:14.652Z,92672.66
2017-12-27T17:20:42.141Z,92669.56
2017-12-27T17:23:09.610Z,92673.62
2017-12-27T17:25:37.072Z,92671.92
2017-12-27T17:28:04.551Z,92665.84
2017-12-27T17:30:32.020Z,92673.37
2017-12-27T17:32:59.480Z,92669.45
2017-12-27T17:35:26.983Z,92665.19
2017-12-27T17:37:54.556Z,92666.94
2017-12-27T17:40:22.025Z,92663.38
2017-12-27T17:42:49.509Z,92664.45
2017-12-27T17:45:17.251Z,92662.58
2017-12-27T17:47:44.737Z,92654.81
2017-12-27T17:50:12.301Z,92661.13
2017-12-27T17:52:39.792Z,92665.08
2017-12-27T17:55:07.280Z,92677.01
2017-12-27T17:57:34.788Z,92670.73
2017-12-27T18:00:02.255Z,92680.81
2017-12-27T18:02:29.748Z,92684.30
2017-12-27T18:04:57.212Z,92686.16
2017-12-27T18:07:24.676Z,92684.98
2017-12-27T18:09:52.989Z,92682.92
2017-12-27T18:12:20.443Z,92684.05
2017-12-27T18:14:47.921Z,92688.37
2017-12-27T18:17:15.384Z,92689.74
2017-12-27T18:19:42.864Z,92689.13
2017-12-27T18:22:10.333Z,92689.59
2017-12-27T18:24:37.797Z,92694.73
2017-12-27T18:27:05.281Z,92701.97
2017-12-27T18:29:35.111Z,92697.28
2017-12-27T18:32:02.604Z,92699.02
2017-12-27T18:34:30.090Z,92692.72
2017-12-27T18:36:57.559Z,92691.98
2017-12-27T18:39:25.041Z,92700.47
2017-12-27T18:41:52.512Z,92700.22
2017-12-27T18:44:20.029Z,92709.44
2017-12-27T18:46:47.588Z,92709.70
2017-12-27T18:49:15.052Z,92715.81
2017-12-27T18:51:43.088Z,92709.99
2017-12-27T18:54:10.644Z,92707.56
2017-12-27T18:56:38.132Z,92706.23
2017-12-27T18:59:06.522Z,92707.25
2017-12-27T19:01:33.983Z,92707.33
2017-12-27T19:04:01.469Z,92714.64
2017-12-27T19:06:28.952Z,92717.86
2017-12-27T19:08:56.432Z,92716.55
2017-12-27T19:11:23.896Z,92717.13
2017-12-27T19:13:51.834Z,92729.51
2017-12-27T19:16:21.316Z,92730.89
2017-12-27T19:18:49.717Z,92734.78
2017-12-27T19:21:17.213Z,92735.61
2017-12-27T19:23:44.724Z,92743.73
2017-12-27T19:26:12.202Z,92742.77
2017-12-27T19:28:39.668Z,92744.97
2017-12-27T19:31:07.151Z,92738.22
2017-12-27T19:33:34.612Z,92748.59
2017-12-27T19:36:02.072Z,92740.03
2017-12-27T19:38:29.556Z,92755.08
2017-12-27T19:40:57.253Z,92756.26
2017-12-27T19:43:24.720Z,92760.73
2017-12-27T19:45:52.208Z,92779.85
2017-12-27T19:48:19.675Z,92775.35
2017-12-27T19:50:47.174Z,92780.34
2017-12-27T19:53:14.652Z,92777.41
2017-12-27T19:55:42.116Z,92784.05
2017-12-27T19:58:09.576Z,92785.55
2017-12-27T20:00:37.056Z,92787.02
2017-12-27T20:03:04.519Z,92786.97
2017-12-27T20:05:32.096Z,92790.73
2017-12-27T20:07:59.584Z,92793.02
2017-12-27T20:10:27.152Z,92798.23
2017-12-27T20:12:54.612Z,92797.36
2017-12-27T20:15:22.097Z,92799.52
2017-12-27T20:17:49.582Z,92802.91
2017-12-27T20:20:17.070Z,92801.36
2017-12-27T20:22:44.556Z,92805.29
2017-12-27T20:25:12.025Z,92805.17
2017-12-27T20:27:39.544Z,92802.66
2017-12-27T20:30:07.028Z,92811.40
2017-12-27T20:32:34.501Z,92815.22
2017-12-27T20:35:01.996Z,92812.72
2017-12-27T20:37:29.486Z,92814.83
2017-12-27T20:39:56.996Z,92812.37
2017-12-27T20:42:24.468Z,92808.95
2017-12-27T20:44:51.946Z,92814.41
2017-12-27T20:47:19.560Z,92815.08
2017-12-27T20:49:47.024Z,92816.08
2017-12-27T20:52:14.859Z,92816.39
2017-12-27T20:54:42.393Z,92814.11
2017-12-27T20:57:09.880Z,92821.95
2017-12-27T20:59:37.344Z,92817.06
2017-12-27T21:02:04.832Z,92811.95
2017-12-27T21:04:32.337Z,92814.70
2017-12-27T21:06:59.824Z,92809.04
2017-12-27T21:09:28.268Z,92814.31
2017-12-27T21:11:55.747Z,92813.25
2017-12-27T21:14:23.483Z,92815.36
2017-12-27T21:16:50.957Z,92811.49
2017-12-27T21:19:18.500Z,92814.78
2017-12-27T21:21:45.984Z,92821.14
2017-12-27T21:24:13.456Z,92826.80
2017-12-27T21:26:40.920Z,92834.48
2017-12-27T21:29:08.408Z,92820.70
2017-12-27T21:31:35.881Z,92824.17
2017-12-27T21:34:03.386Z,92821.99
2017-12-27T21:36:30.860Z,92837.95
2017-12-27T21:38:58.353Z,92846.80
2017-12-27T21:41:26.452Z,92849.01
2017-12-27T21:43:53.916Z,92857.98
2017-12-27T21:46:21.398Z,92865.01
2017-12-27T21:48:54.488Z,92857.32
2017-12-27T21:51:21.975Z,92864.46
2017-12-27T21:53:49.440Z,92869.06
2017-12-27T21:56:16.944Z,92867.03
2017-12-27T21:58:50.132Z,92872.03
2017-12-27T22:01:23.138Z,92870.24
2017-12-27T22:03:50.609Z,92873.23
2017-12-27T22:06:18.075Z,92877.44
2017-12-27T22:08:45.563Z,92883.77
2017-12-27T22:11:13.032Z,92881.09
2017-12-27T22:13:40.522Z,92880.06
2017-12-27T22:16:07.989Z,92873.28
2017-12-27T22:18:35.666Z,92870.13
2017-12-27T22:21:08.988Z,92860.06
2017-12-27T22:23:36.740Z,92865.02
2017-12-27T22:26:04.228Z,92876.21
2017-12-27T22:28:32.286Z,92883.06
2017-12-27T22:30:59.751Z,92876.11
2017-12-27T22:33:27.303Z,92889.21
2017-12-27T22:35:54.771Z,92881.53
2017-12-27T22:38:22.261Z,92876.05
2017-12-27T22:40:49.748Z,92876.30
2017-12-27T22:43:17.233Z,92886.50
2017-12-27T22:45:44.707Z,92900.48
2017-12-27T22:48:12.235Z,92914.19
2017-12-27T22:50:39.695Z,92898.20
2017-12-27T22:53:07.243Z,92888.64
2017-12-27T22:55:34.736Z,92887.75
2017-12-27T22:58:02.224Z,92891.31
2017-12-27T23:00:29.725Z,92892.67
2017-12-27T23:02:57.284Z,92898.31
2017-12-27T23:05:24.748Z,92901.91
2017-12-27T23:07:52.319Z,92903.34
2017-12-27T23:10:19.799Z,92901.77
2017-12-27T23:12:47.276Z,92902.30
2017-12-27T23:15:14.739Z,92896.01
2017-12-27T23:17:42.228Z,92903.95
2017-12-27T23:20:09.698Z,92905.20
2017-12-27T23:22:37.164Z,92900.98
2017-12-27T23:25:05.499Z,92894.23
2017-12-27T23:27:32.977Z,92906.59
2017-12-27T23:30:00.436Z,92912.34
2017-12-27T23:32:27.908Z,92906.84
2017-12-27T23:34:55.368Z,92898.14
2017-12-27T23:37:22.852Z,92905.24
2017-12-27T23:39:50.340Z,92896.64
2017-12-27T23:42:17.791Z,92910.92
2017-12-27T23:44:45.244Z,92926.28
2017-12-27T23:47:12.718Z,92929.17
2017-12-27T23:49:40.178Z,92921.25
2017-12-27T23:52:07.676Z,92921.44
2017-12-27T23:54:35.150Z,92918.47
2017-12-27T23:57:02.609Z,92922.94
2017-12-27T23:59:30.176Z,92915.08
